Time;durP1;ratioP1;P1;durP2;ratioP2;P2;SDS_P1;SDS_P2;PMS_P1;PMS_P2;Temp;Humidity;BMP_temperature;BMP_pressure;BME280_temperature;BME280_humidity;BME280_pressure;Samples;Min_cycle;Max_cycle;Signal;HPM_P1;HPM_P2
2022/04/25 00:00:42;;;;;;;8.68;6.45;;;15.70;81.00;;;;;;4954758;28;95887;-58
2022/04/25 00:03:12;;;;;;;9.52;7.00;;;15.70;81.50;;;;;;4960670;28;95643;-56
2022/04/25 00:05:43;;;;;;;8.85;6.90;;;15.70;81.40;;;;;;4956843;28;96322;-56
2022/04/25 00:08:15;;;;;;;9.63;7.00;;;15.80;81.50;;;;;;4965792;28;96039;-59
2022/04/25 00:10:46;;;;;;;10.02;7.18;;;15.80;81.40;;;;;;4960911;28;95672;-55
2022/04/25 00:13:16;;;;;;;8.70;7.18;;;15.80;81.20;;;;;;4961069;28;95296;-58
2022/04/25 00:15:46;;;;;;;9.23;7.35;;;15.80;81.20;;;;;;4954670;28;97024;-58
2022/04/25 00:18:17;;;;;;;8.38;6.50;;;15.80;81.00;;;;;;4954316;28;95827;-57
2022/04/25 00:20:48;;;;;;;8.73;7.18;;;15.90;81.00;;;;;;4962032;28;96048;-58
2022/04/25 00:23:19;;;;;;;9.02;7.05;;;15.90;80.80;;;;;;4954342;28;95279;-56
2022/04/25 00:25:50;;;;;;;10.30;7.38;;;15.90;80.70;;;;;;4958415;28;96490;-56
2022/04/25 00:28:24;;;;;;;8.27;7.32;;;15.90;80.70;;;;;;4964395;28;95858;-57
2022/04/25 00:30:54;;;;;;;7.90;6.22;;;15.90;80.70;;;;;;4951558;28;97931;-56
2022/04/25 00:33:27;;;;;;;9.32;6.07;;;15.90;80.60;;;;;;4954540;28;95820;-57
2022/04/25 00:35:58;;;;;;;9.13;6.90;;;16.00;80.50;;;;;;4960975;28;96437;-54
2022/04/25 00:38:29;;;;;;;8.98;6.53;;;15.90;80.40;;;;;;4954388;28;95778;-57
2022/04/25 00:41:01;;;;;;;8.07;6.75;;;16.00;80.40;;;;;;4951133;28;95897;-56
2022/04/25 00:43:32;;;;;;;12.07;6.40;;;16.00;80.40;;;;;;4948924;28;95361;-55
2022/04/25 00:46:04;;;;;;;8.30;5.63;;;16.00;80.30;;;;;;4942712;28;96105;-54
2022/04/25 00:48:37;;;;;;;8.55;6.20;;;16.00;80.20;;;;;;4938954;28;95833;-55
2022/04/25 00:51:08;;;;;;;9.63;7.10;;;16.10;80.30;;;;;;4938581;28;96006;-62
2022/04/25 00:53:40;;;;;;;9.23;6.60;;;16.10;80.10;;;;;;4934297;28;95653;-59
2022/04/25 00:56:12;;;;;;;7.90;5.72;;;16.10;79.90;;;;;;4930561;28;96327;-57
2022/04/25 00:58:45;;;;;;;6.82;6.13;;;16.10;79.80;;;;;;4936035;28;95874;-57
2022/04/25 01:01:16;;;;;;;8.38;5.65;;;16.20;79.70;;;;;;4933211;28;96083;-56
2022/04/25 01:03:49;;;;;;;6.93;6.05;;;16.20;79.60;;;;;;4953462;28;96074;-58
2022/04/25 01:06:21;;;;;;;7.00;6.30;;;16.30;79.70;;;;;;4957531;28;95792;-57
2022/04/25 01:08:52;;;;;;;10.15;6.43;;;16.30;79.70;;;;;;4961981;28;95855;-56
2022/04/25 01:11:22;;;;;;;6.72;5.97;;;16.30;79.70;;;;;;4963146;28;95554;-58
2022/04/25 01:13:52;;;;;;;7.10;6.33;;;16.40;79.70;;;;;;4964844;28;95562;-55
2022/04/25 01:16:22;;;;;;;8.75;6.22;;;16.40;79.70;;;;;;4946869;28;95819;-55
2022/04/25 01:18:52;;;;;;;9.18;5.90;;;16.40;79.80;;;;;;4954900;28;95434;-51
2022/04/25 01:21:23;;;;;;;8.65;5.65;;;16.50;79.70;;;;;;4958937;28;97981;-55
2022/04/25 01:29:33;;;;;;;8.43;6.25;;;16.70;79.50;;;;;;4950921;28;95762;-56
2022/04/25 01:32:05;;;;;;;7.97;5.72;;;16.80;79.60;;;;;;4944880;28;95807;-53
2022/04/25 01:34:38;;;;;;;8.45;5.28;;;16.80;79.50;;;;;;4951247;28;95638;-55
2022/04/25 01:37:12;;;;;;;8.63;6.30;;;16.90;79.40;;;;;;4948126;28;99127;-56
2022/04/25 01:39:44;;;;;;;7.32;5.47;;;16.90;79.40;;;;;;4948736;28;95424;-55
2022/04/25 01:42:15;;;;;;;13.20;6.15;;;17.00;79.50;;;;;;4948052;28;96035;-56
2022/04/25 01:44:47;;;;;;;6.65;5.53;;;17.10;79.60;;;;;;4954695;28;95900;-56
2022/04/25 01:47:19;;;;;;;6.30;5.63;;;17.10;79.60;;;;;;4941621;28;96123;-55
2022/04/25 01:49:51;;;;;;;6.47;5.47;;;17.20;79.50;;;;;;4962559;28;95636;-57
2022/04/25 01:52:28;;;;;;;7.55;5.78;;;17.20;79.30;;;;;;4952027;28;95921;-54
2022/04/25 01:54:59;;;;;;;6.25;4.68;;;17.30;78.80;;;;;;4963758;28;95344;-57
2022/04/25 01:57:29;;;;;;;7.65;5.35;;;17.30;79.10;;;;;;4956050;28;95841;-59
2022/04/25 01:59:59;;;;;;;8.18;5.70;;;17.40;79.00;;;;;;4949885;28;95909;-55
2022/04/25 02:02:32;;;;;;;8.82;5.63;;;17.40;78.80;;;;;;4955048;28;95900;-55
2022/04/25 02:05:04;;;;;;;7.65;5.68;;;17.50;78.80;;;;;;4978803;28;95895;-55
2022/04/25 02:07:34;;;;;;;;;;;17.50;78.70;;;;;;4957480;28;95648;-57
2022/04/25 02:10:05;;;;;;;6.82;5.10;;;17.60;77.90;;;;;;4967270;28;96563;-55
2022/04/25 02:12:35;;;;;;;5.80;5.20;;;17.70;78.40;;;;;;4962307;28;95886;-56
2022/04/25 02:15:12;;;;;;;5.90;5.13;;;17.80;78.50;;;;;;4944671;28;97837;-56
2022/04/25 02:17:44;;;;;;;7.93;5.05;;;17.80;78.30;;;;;;4946683;28;102318;-56
2022/04/25 02:20:15;;;;;;;7.40;4.82;;;17.90;78.20;;;;;;4944514;28;95790;-57
2022/04/25 02:22:45;;;;;;;5.80;5.13;;;18.00;78.20;;;;;;4931966;28;98008;-55
2022/04/25 02:25:16;;;;;;;5.82;4.47;;;18.00;78.10;;;;;;4932837;28;95724;-57
2022/04/25 02:27:48;;;;;;;6.03;4.72;;;18.10;78.00;;;;;;4933966;28;96088;-56
2022/04/25 02:30:19;;;;;;;5.45;4.93;;;18.10;78.00;;;;;;4938494;28;96048;-56
2022/04/25 02:32:54;;;;;;;6.30;4.93;;;18.20;78.00;;;;;;4947667;28;95866;-55
2022/04/25 02:35:24;;;;;;;4.88;4.07;;;18.30;77.90;;;;;;4953260;28;95729;-56
2022/04/25 02:37:55;;;;;;;4.75;4.10;;;18.30;77.70;;;;;;4960955;28;96511;-55
2022/04/25 02:40:26;;;;;;;5.60;5.10;;;18.40;77.80;;;;;;4956426;28;96751;-54
2022/04/25 02:42:57;;;;;;;5.93;4.72;;;18.50;77.70;;;;;;4955509;28;97450;-57
2022/04/25 02:45:28;;;;;;;5.05;4.57;;;18.50;77.70;;;;;;4951952;28;97840;-59
2022/04/25 02:47:59;;;;;;;6.13;4.13;;;18.60;77.40;;;;;;4961683;28;96438;-58
2022/04/25 02:50:31;;;;;;;6.95;4.95;;;18.60;77.10;;;;;;4963209;28;95845;-58
2022/04/25 02:53:01;;;;;;;5.60;3.88;;;18.70;77.00;;;;;;4961730;28;95449;-60
2022/04/25 02:55:32;;;;;;;5.70;4.18;;;18.80;76.70;;;;;;4951174;28;95738;-61
2022/04/25 02:58:01;;;;;;;4.00;3.70;;;18.80;76.80;;;;;;4963242;28;96596;-60
2022/04/25 03:00:31;;;;;;;4.63;3.75;;;18.90;76.60;;;;;;4946576;28;95465;-61
2022/04/25 03:03:01;;;;;;;6.00;3.80;;;18.90;76.10;;;;;;4944847;28;97708;-61
2022/04/25 03:05:32;;;;;;;5.57;3.00;;;19.00;76.00;;;;;;4930442;28;95668;-60
2022/04/25 03:08:03;;;;;;;3.70;3.40;;;19.00;75.60;;;;;;4940290;28;96509;-60
2022/04/25 03:10:36;;;;;;;5.47;2.97;;;19.10;75.30;;;;;;4932618;28;96113;-60
2022/04/25 03:13:07;;;;;;;9.55;3.00;;;19.10;75.00;;;;;;4938379;28;95540;-59
2022/04/25 03:15:38;;;;;;;4.97;2.92;;;19.20;74.80;;;;;;4938136;28;95222;-60
2022/04/25 03:18:09;;;;;;;;;;;19.20;75.30;;;;;;4955192;28;95820;-59
2022/04/25 03:20:44;;;;;;;3.08;2.88;;;19.30;74.60;;;;;;4959846;28;95707;-60
2022/04/25 03:23:20;;;;;;;3.30;3.00;;;19.30;74.20;;;;;;4955998;28;95406;-60
2022/04/25 03:25:51;;;;;;;3.63;2.58;;;19.40;74.10;;;;;;4950736;28;95660;-60
2022/04/25 03:28:23;;;;;;;3.33;3.03;;;19.40;73.60;;;;;;4963813;28;96827;-61
2022/04/25 03:30:55;;;;;;;4.38;3.17;;;19.50;73.70;;;;;;4957886;28;96502;-59
2022/04/25 03:33:31;;;;;;;3.28;2.97;;;19.50;73.80;;;;;;4938550;28;95767;-61
2022/04/25 03:36:04;;;;;;;3.90;3.00;;;19.60;73.60;;;;;;4934431;28;95869;-60
2022/04/25 03:38:37;;;;;;;3.05;2.75;;;19.60;73.10;;;;;;4940319;28;95837;-61
2022/04/25 03:41:10;;;;;;;4.05;3.05;;;19.70;73.00;;;;;;4937638;28;95966;-60
2022/04/25 03:43:42;;;;;;;5.90;3.35;;;19.70;73.10;;;;;;4932641;28;95991;-54
2022/04/25 03:46:13;;;;;;;3.30;2.67;;;19.80;73.00;;;;;;4931778;28;98798;-63
2022/04/25 03:48:44;;;;;;;4.65;2.90;;;19.80;72.70;;;;;;4957301;28;95956;-61
2022/04/25 03:51:15;;;;;;;2.85;2.47;;;19.80;72.50;;;;;;4960079;28;95399;-63
2022/04/25 03:53:46;;;;;;;3.70;3.40;;;19.90;72.20;;;;;;4961715;28;96055;-68
2022/04/25 03:59:08;;;;;;;6.05;3.35;;;20.00;72.50;;;;;;4962726;28;96546;-59
2022/04/25 04:01:38;;;;;;;3.50;3.05;;;20.00;72.10;;;;;;4943610;28;95689;-60
2022/04/25 04:04:08;;;;;;;4.05;2.67;;;20.10;72.40;;;;;;4958301;28;95345;-60
2022/04/25 04:06:38;;;;;;;3.00;2.67;;;20.10;72.20;;;;;;4954240;28;95837;-56
2022/04/25 04:11:58;;;;;;;3.05;2.75;;;20.20;72.20;;;;;;4953780;28;96091;-60
2022/04/25 04:14:29;;;;;;;3.03;1.83;;;20.20;71.40;;;;;;4956284;28;95320;-60
2022/04/25 04:17:04;;;;;;;4.93;3.17;;;20.30;71.70;;;;;;4949289;28;95663;-63
2022/04/25 04:19:36;;;;;;;2.92;2.65;;;20.30;71.40;;;;;;4962690;28;95893;-63
2022/04/25 04:22:07;;;;;;;3.60;2.78;;;20.30;71.90;;;;;;4956826;28;96459;-62
2022/04/25 04:24:38;;;;;;;4.88;2.20;;;20.30;71.80;;;;;;4962378;28;95676;-60
2022/04/25 04:27:08;;;;;;;3.17;2.47;;;20.30;71.60;;;;;;4952288;28;95707;-62
2022/04/25 04:29:40;;;;;;;3.25;2.00;;;20.40;71.70;;;;;;4948258;28;95887;-62
2022/04/25 04:32:15;;;;;;;5.38;2.58;;;20.40;71.70;;;;;;4950107;28;95730;-60
2022/04/25 04:34:47;;;;;;;3.05;2.60;;;20.40;71.70;;;;;;4961347;28;95712;-62
2022/04/25 04:37:18;;;;;;;5.45;3.10;;;20.40;71.70;;;;;;4949598;28;95764;-62
2022/04/25 04:39:49;;;;;;;3.25;2.58;;;20.40;71.60;;;;;;4952606;28;96072;-61
2022/04/25 04:42:20;;;;;;;4.82;3.08;;;20.50;71.60;;;;;;4954299;28;95992;-61
2022/04/25 04:44:52;;;;;;;3.25;2.95;;;20.50;71.50;;;;;;4948186;28;95921;-65
2022/04/25 04:47:23;;;;;;;3.22;2.40;;;20.50;71.40;;;;;;4943919;28;95751;-63
2022/04/25 04:49:56;;;;;;;3.00;1.97;;;20.50;71.30;;;;;;4959678;28;95856;-63
2022/04/25 04:52:28;;;;;;;3.15;2.85;;;20.50;70.70;;;;;;4958682;28;95369;-63
2022/04/25 04:54:59;;;;;;;3.22;2.22;;;20.60;71.40;;;;;;4956350;28;97617;-62
2022/04/25 04:57:29;;;;;;;2.25;2.05;;;20.60;71.30;;;;;;4962355;28;95358;-60
2022/04/25 05:00:00;;;;;;;2.13;1.90;;;20.60;71.40;;;;;;4949726;28;95852;-65
2022/04/25 05:02:29;;;;;;;2.83;2.47;;;20.60;71.30;;;;;;4942615;28;98637;-60
2022/04/25 05:05:00;;;;;;;2.72;2.17;;;20.70;71.30;;;;;;4960400;28;95979;-61
2022/04/25 05:07:31;;;;;;;;;;;20.70;70.50;;;;;;4964409;28;96439;-62
2022/04/25 05:10:06;;;;;;;2.25;2.05;;;20.70;71.00;;;;;;4951297;28;95750;-62
2022/04/25 05:12:50;;;;;;;7.53;2.30;;;20.70;71.10;;;;;;4948523;28;95659;-62
2022/04/25 05:15:21;;;;;;;4.13;2.75;;;20.70;71.10;;;;;;4947462;28;95623;-62
2022/04/25 05:17:54;;;;;;;2.80;2.42;;;20.70;71.10;;;;;;4961484;28;95574;-61
2022/04/25 05:20:24;;;;;;;2.78;2.05;;;20.70;69.90;;;;;;4947275;28;97405;-63
2022/04/25 05:22:56;;;;;;;;;;;20.70;71.40;;;;;;4948351;28;95558;-61
2022/04/25 05:25:28;;;;;;;4.13;2.50;;;20.80;70.90;;;;;;4950627;28;95294;-62
2022/04/25 05:28:00;;;;;;;2.60;2.20;;;20.80;70.70;;;;;;4962751;28;96119;-61
2022/04/25 05:30:32;;;;;;;2.97;2.38;;;20.80;70.60;;;;;;4944461;28;96054;-62
2022/04/25 05:33:03;;;;;;;5.22;2.92;;;20.80;70.40;;;;;;4951651;28;95335;-62
2022/04/25 05:35:35;;;;;;;2.50;2.30;;;20.80;70.40;;;;;;4947973;28;96103;-61
2022/04/25 05:38:06;;;;;;;2.35;2.15;;;20.80;70.40;;;;;;4954140;28;95329;-61
2022/04/25 05:40:44;;;;;;;2.72;2.22;;;20.80;70.20;;;;;;4957414;28;96441;-61
2022/04/25 05:43:15;;;;;;;2.22;2.00;;;20.80;70.10;;;;;;4959201;28;96250;-61
2022/04/25 05:45:47;;;;;;;2.55;2.35;;;20.80;70.30;;;;;;4948883;28;95818;-62
2022/04/25 05:53:59;;;;;;;2.78;2.50;;;20.90;70.00;;;;;;4956957;28;96124;-64
2022/04/25 05:56:29;;;;;;;2.93;1.93;;;20.90;70.50;;;;;;4935729;28;95621;-61
2022/04/25 05:58:59;;;;;;;6.07;3.65;;;20.90;70.70;;;;;;4933614;28;95743;-60
2022/04/25 06:01:29;;;;;;;3.30;3.00;;;20.90;70.10;;;;;;4935962;28;96009;-60
2022/04/25 06:03:59;;;;;;;3.30;3.00;;;20.90;70.20;;;;;;4945747;28;95864;-60
2022/04/25 06:06:31;;;;;;;8.20;3.55;;;20.90;70.30;;;;;;4941583;28;95889;-61
2022/04/25 06:09:02;;;;;;;6.13;3.65;;;21.00;70.30;;;;;;4943006;28;95742;-61
2022/04/25 06:11:32;;;;;;;4.63;4.10;;;21.00;70.20;;;;;;4937786;28;95737;-60
2022/04/25 06:14:02;;;;;;;6.65;4.47;;;21.00;70.10;;;;;;4945337;28;95699;-61
2022/04/25 06:16:34;;;;;;;5.13;4.30;;;21.00;70.20;;;;;;4941181;28;97738;-60
2022/04/25 06:19:05;;;;;;;7.53;4.65;;;21.00;70.40;;;;;;4951812;28;95552;-59
2022/04/25 06:21:36;;;;;;;8.60;4.88;;;20.90;70.30;;;;;;4960874;28;97766;-61
2022/04/25 06:24:08;;;;;;;6.43;5.50;;;20.90;70.40;;;;;;4962790;28;95914;-58
2022/04/25 06:26:38;;;;;;;;;;;20.90;70.40;;;;;;4965315;28;96741;-60
2022/04/25 06:29:10;;;;;;;4.83;4.33;;;20.90;70.40;;;;;;4955192;28;95658;-61
2022/04/25 06:31:41;;;;;;;5.43;4.47;;;20.90;69.90;;;;;;4954746;28;95876;-59
2022/04/25 06:34:13;;;;;;;7.88;5.28;;;20.90;70.40;;;;;;4958324;28;95367;-61
2022/04/25 06:36:43;;;;;;;6.32;5.60;;;20.90;70.60;;;;;;4954814;28;95583;-61
2022/04/25 06:39:14;;;;;;;12.13;5.03;;;20.90;70.80;;;;;;4961285;28;95769;-61
2022/04/25 06:41:48;;;;;;;9.55;4.95;;;20.90;70.90;;;;;;4955215;28;96303;-60
2022/04/25 06:44:18;;;;;;;6.57;5.28;;;20.90;71.20;;;;;;4951200;28;96001;-60
2022/04/25 06:46:51;;;;;;;7.45;5.07;;;20.90;70.90;;;;;;4941361;28;96230;-62
2022/04/25 06:49:24;;;;;;;7.53;5.05;;;20.90;70.60;;;;;;4933385;28;95394;-62
2022/04/25 06:51:58;;;;;;;8.45;5.20;;;20.90;70.90;;;;;;4943256;28;96381;-61
2022/04/25 06:54:31;;;;;;;8.20;5.13;;;21.00;70.70;;;;;;4935290;28;95530;-60
2022/04/25 06:57:02;;;;;;;7.75;4.93;;;21.00;70.70;;;;;;4946064;28;95974;-60
2022/04/25 06:59:32;;;;;;;11.02;6.03;;;21.00;70.50;;;;;;4936814;28;95995;-60
2022/04/25 07:02:02;;;;;;;9.02;5.20;;;21.00;70.50;;;;;;4927443;28;96691;-62
2022/04/25 07:04:33;;;;;;;9.07;5.57;;;21.00;70.40;;;;;;4930227;28;95388;-61
2022/04/25 07:07:04;;;;;;;5.25;4.72;;;21.00;70.30;;;;;;4933261;28;95573;-61
2022/04/25 07:09:36;;;;;;;8.27;6.07;;;20.90;70.20;;;;;;4943987;28;95264;-61
2022/04/25 07:12:08;;;;;;;8.07;5.65;;;20.90;70.30;;;;;;4936390;28;96769;-60
2022/04/25 07:14:38;;;;;;;8.55;5.63;;;20.90;70.50;;;;;;4936818;28;96037;-61
2022/04/25 07:17:08;;;;;;;10.48;6.05;;;20.90;70.60;;;;;;4948206;28;101429;-60
2022/04/25 07:19:39;;;;;;;8.25;4.90;;;20.90;70.70;;;;;;4967938;28;98123;-61
2022/04/25 07:30:40;;;;;;;9.13;5.22;;;20.80;71.20;;;;;;4943155;28;95706;-60
2022/04/25 07:33:11;;;;;;;8.52;4.63;;;20.70;71.20;;;;;;4927569;28;95920;-60
2022/04/25 07:35:44;;;;;;;7.30;4.55;;;20.70;71.50;;;;;;4929297;28;95847;-60
2022/04/25 07:38:16;;;;;;;6.32;5.00;;;20.80;71.60;;;;;;4930776;28;96131;-60
2022/04/25 07:40:46;;;;;;;4.75;3.95;;;20.80;71.60;;;;;;4932076;28;96221;-60
2022/04/25 07:43:17;;;;;;;;;;;20.70;71.80;;;;;;4933786;28;95923;-59
2022/04/25 07:45:48;;;;;;;9.52;5.00;;;20.70;71.90;;;;;;4936509;28;96403;-61
2022/04/25 07:48:19;;;;;;;7.50;4.50;;;20.70;72.00;;;;;;4955874;28;95334;-63
2022/04/25 07:50:53;;;;;;;5.07;4.13;;;20.60;72.10;;;;;;4964202;28;95816;-61
2022/04/25 07:53:24;;;;;;;8.25;4.75;;;20.60;72.50;;;;;;4956909;28;95948;-60
2022/04/25 07:55:55;;;;;;;4.70;3.67;;;20.50;72.40;;;;;;4952983;28;95330;-61
2022/04/25 07:58:26;;;;;;;5.13;4.07;;;20.50;72.50;;;;;;4958063;28;95380;-61
2022/04/25 08:00:56;;;;;;;4.60;4.10;;;20.60;72.80;;;;;;4943908;28;95783;-58
2022/04/25 08:03:28;;;;;;;4.20;3.85;;;20.60;72.90;;;;;;4931113;28;96561;-61
2022/04/25 08:05:59;;;;;;;6.50;4.82;;;20.50;72.80;;;;;;4936258;28;95681;-60
2022/04/25 08:08:32;;;;;;;6.10;4.55;;;20.40;73.10;;;;;;4945310;28;95659;-59
2022/04/25 08:11:03;;;;;;;5.28;4.32;;;20.50;73.10;;;;;;4936423;28;95558;-60
2022/04/25 08:19:13;;;;;;;6.63;4.65;;;20.40;73.30;;;;;;4951441;28;96135;-59
2022/04/25 08:21:45;;;;;;;5.45;4.50;;;20.30;73.50;;;;;;4948430;28;95661;-60
2022/04/25 08:24:17;;;;;;;4.80;4.18;;;20.30;73.50;;;;;;4963445;28;98352;-59
2022/04/25 08:26:47;;;;;;;6.25;4.65;;;20.30;73.60;;;;;;4951322;28;95845;-59
2022/04/25 08:29:18;;;;;;;7.28;4.43;;;20.30;73.60;;;;;;4951356;28;95756;-59
2022/04/25 08:31:49;;;;;;;8.15;6.15;;;20.30;73.70;;;;;;4942088;28;95522;-59
2022/04/25 08:34:20;;;;;;;8.90;5.85;;;20.30;73.80;;;;;;4953170;28;95897;-59
2022/04/25 08:36:52;;;;;;;9.75;6.68;;;20.20;73.90;;;;;;4951822;28;95858;-59
2022/04/25 08:39:24;;;;;;;12.35;7.13;;;20.20;73.90;;;;;;4952622;28;95929;-58
2022/04/25 08:42:01;;;;;;;;;;;20.20;74.20;;;;;;4957570;28;100631;-59
2022/04/25 08:44:43;;;;;;;13.43;8.30;;;20.20;74.20;;;;;;4956678;28;96507;-59
2022/04/25 08:47:14;;;;;;;12.07;7.55;;;20.10;74.20;;;;;;4945750;28;97729;-60
2022/04/25 08:49:48;;;;;;;14.95;9.05;;;20.10;74.20;;;;;;4961759;28;95683;-60
2022/04/25 08:52:20;;;;;;;13.10;8.55;;;20.10;73.70;;;;;;4959105;28;96024;-59
2022/04/25 08:54:52;;;;;;;16.80;10.38;;;20.10;74.30;;;;;;4957606;28;96291;-59
2022/04/25 08:57:23;;;;;;;22.70;14.60;;;20.10;74.40;;;;;;4947335;28;96193;-59
2022/04/25 08:59:55;;;;;;;37.22;22.27;;;20.10;74.40;;;;;;4951468;28;96148;-58
2022/04/25 09:02:25;;;;;;;58.03;37.92;;;20.10;74.40;;;;;;4959631;28;95982;-62
2022/04/25 09:04:56;;;;;;;105.45;75.13;;;20.10;74.70;;;;;;4960245;28;96017;-59
2022/04/25 09:07:26;;;;;;;178.30;122.68;;;20.00;75.00;;;;;;4953000;28;95720;-62
2022/04/25 09:09:57;;;;;;;184.80;137.88;;;20.00;75.30;;;;;;4946682;28;96027;-61
2022/04/25 09:12:31;;;;;;;193.85;134.60;;;20.00;75.40;;;;;;4945015;28;98180;-60
2022/04/25 09:15:03;;;;;;;178.18;122.30;;;20.00;75.50;;;;;;4944783;28;96464;-58
2022/04/25 09:17:55;;;;;;;160.63;115.50;;;19.90;75.50;;;;;;4953206;28;102640;-61
2022/04/25 09:20:27;;;;;;;161.10;112.03;;;19.90;75.10;;;;;;4962263;28;95654;-60
2022/04/25 09:22:58;;;;;;;164.60;118.10;;;19.90;75.00;;;;;;4978757;28;95370;-61
2022/04/25 09:25:28;;;;;;;159.23;113.20;;;19.90;75.50;;;;;;4950714;28;96043;-60
2022/04/25 09:28:15;;;;;;;155.93;110.00;;;19.90;75.60;;;;;;4948064;28;96186;-61
2022/04/25 09:31:01;;;;;;;151.13;109.90;;;19.80;75.60;;;;;;4942178;28;95951;-61
2022/04/25 09:33:31;;;;;;;159.77;115.57;;;19.80;75.60;;;;;;4954132;28;95786;-60
2022/04/25 09:36:04;;;;;;;160.48;114.25;;;19.80;75.70;;;;;;4957008;28;96014;-60
2022/04/25 09:38:40;;;;;;;136.82;100.05;;;19.80;75.70;;;;;;4952553;28;95391;-61
2022/04/25 09:41:16;;;;;;;153.55;108.60;;;19.70;75.60;;;;;;4953816;28;95821;-59
2022/04/25 09:44:00;;;;;;;162.38;117.75;;;19.70;75.70;;;;;;4954547;28;98313;-59
2022/04/25 09:46:50;;;;;;;151.05;109.13;;;19.70;75.90;;;;;;4949831;28;96727;-61
2022/04/25 09:49:22;;;;;;;156.75;111.40;;;19.70;76.60;;;;;;4959281;28;97482;-61
2022/04/25 09:52:05;;;;;;;151.05;107.72;;;19.60;77.00;;;;;;4957500;28;95761;-61
2022/04/25 09:54:35;;;;;;;156.02;107.53;;;19.50;77.00;;;;;;4952608;28;95774;-61
2022/04/25 09:57:05;;;;;;;151.50;109.38;;;19.50;77.00;;;;;;4956627;28;96392;-61
2022/04/25 09:59:47;;;;;;;151.70;112.63;;;19.50;77.00;;;;;;4959568;28;95646;-61
2022/04/25 10:02:20;;;;;;;151.40;109.80;;;19.40;77.00;;;;;;4942637;28;95412;-62
2022/04/25 10:04:52;;;;;;;145.65;110.07;;;19.40;76.80;;;;;;4947680;28;95890;-61
2022/04/25 10:07:24;;;;;;;160.68;110.10;;;19.40;76.70;;;;;;4958304;28;95826;-61
2022/04/25 10:09:56;;;;;;;142.35;109.25;;;19.40;76.80;;;;;;4948445;28;96203;-60
2022/04/25 10:12:27;;;;;;;141.70;101.80;;;19.50;76.90;;;;;;4953755;28;95822;-59
2022/04/25 10:15:01;;;;;;;145.95;108.85;;;19.50;76.70;;;;;;4980228;28;96160;-62
2022/04/25 10:17:33;;;;;;;153.20;111.22;;;19.60;76.40;;;;;;4940437;28;97996;-60
2022/04/25 10:20:06;;;;;;;158.75;122.15;;;19.60;76.10;;;;;;4940988;28;96017;-59
2022/04/25 10:22:36;;;;;;;153.57;117.20;;;19.60;76.00;;;;;;4949156;28;95807;-61
2022/04/25 10:25:10;;;;;;;150.32;114.13;;;19.70;75.80;;;;;;4950143;28;95850;-61
2022/04/25 10:27:43;;;;;;;158.57;122.22;;;19.70;75.70;;;;;;4948639;28;95859;-61
2022/04/25 10:30:21;;;;;;;162.27;119.38;;;19.70;75.60;;;;;;4942248;28;95779;-60
2022/04/25 10:32:52;;;;;;;157.10;120.07;;;19.70;75.50;;;;;;4960330;28;98249;-61
2022/04/25 10:35:34;;;;;;;150.55;115.10;;;19.80;74.30;;;;;;4957674;28;95398;-61
2022/04/25 10:39:09;;;;;;;153.02;112.80;;;19.70;75.30;;;;;;4956767;28;96391;-62
2022/04/25 10:44:23;;;;;;;;;;;19.80;75.20;;;;;;4957129;28;96059;-61
2022/04/25 10:47:08;;;;;;;136.48;101.78;;;19.80;75.30;;;;;;4955321;28;96002;-62
2022/04/25 10:49:55;;;;;;;128.23;99.53;;;19.80;75.10;;;;;;4958342;28;95949;-60
2022/04/25 10:52:53;;;;;;;124.95;94.78;;;19.80;75.10;;;;;;4954097;28;96125;-62
2022/04/25 10:55:38;;;;;;;125.75;90.53;;;19.80;75.00;;;;;;4954536;28;95779;-62
2022/04/25 10:58:08;;;;;;;117.93;90.72;;;19.80;75.00;;;;;;4971149;28;96892;-62
2022/04/25 11:00:45;;;;;;;112.63;84.97;;;19.80;74.90;;;;;;4953053;28;96848;-61
2022/04/25 11:03:28;;;;;;;105.57;76.65;;;19.80;74.90;;;;;;4961208;28;95863;-61
2022/04/25 11:06:01;;;;;;;102.30;78.43;;;19.80;74.80;;;;;;4960244;28;95326;-61
2022/04/25 11:08:36;;;;;;;98.20;73.82;;;19.80;74.80;;;;;;4956379;28;95969;-59
2022/04/25 11:11:17;;;;;;;98.38;75.10;;;19.80;74.80;;;;;;4955406;28;96775;-61
2022/04/25 11:13:50;;;;;;;91.05;69.38;;;19.80;74.70;;;;;;4959375;28;95843;-61
2022/04/25 11:16:23;;;;;;;87.13;61.53;;;19.80;74.60;;;;;;4951327;28;95887;-60
2022/04/25 11:19:20;;;;;;;85.88;62.72;;;19.80;74.60;;;;;;4960385;28;95750;-60
2022/04/25 11:21:55;;;;;;;69.38;54.50;;;19.80;74.60;;;;;;4958576;28;96554;-59
2022/04/25 11:24:31;;;;;;;78.30;59.30;;;19.80;74.60;;;;;;4956808;28;95929;-61
2022/04/25 11:27:03;;;;;;;75.90;55.17;;;19.80;74.60;;;;;;4953186;28;95667;-60
2022/04/25 11:29:45;;;;;;;71.10;50.40;;;19.80;75.30;;;;;;4958105;28;95671;-61
2022/04/25 11:32:35;;;;;;;66.22;50.28;;;19.80;74.60;;;;;;4949360;28;95928;-60
2022/04/25 11:35:08;;;;;;;67.45;48.97;;;19.70;74.50;;;;;;4956774;28;96060;-61
2022/04/25 11:37:41;;;;;;;63.63;46.78;;;19.70;74.50;;;;;;4956418;28;96843;-59
2022/04/25 11:40:14;;;;;;;62.53;44.35;;;19.70;74.50;;;;;;4957625;28;95902;-60
2022/04/25 11:42:45;;;;;;;62.28;43.65;;;19.70;74.50;;;;;;4943120;28;101196;-60
2022/04/25 11:45:16;;;;;;;60.88;43.80;;;19.70;74.30;;;;;;4948687;28;96301;-62
2022/04/25 11:47:49;;;;;;;54.53;39.78;;;19.70;74.30;;;;;;4960125;28;95693;-62
2022/04/25 11:50:21;;;;;;;51.17;38.00;;;19.70;74.10;;;;;;4964056;28;95998;-61
2022/04/25 11:52:54;;;;;;;50.85;36.88;;;19.70;74.00;;;;;;4956340;28;95892;-60
2022/04/25 11:55:35;;;;;;;46.35;34.92;;;19.70;73.90;;;;;;4959459;28;95732;-60
2022/04/25 11:58:05;;;;;;;;;;;19.70;73.80;;;;;;4957022;28;96081;-63
2022/04/25 12:00:35;;;;;;;46.70;32.85;;;19.70;73.90;;;;;;4948792;28;96185;-61
2022/04/25 12:03:24;;;;;;;48.75;33.17;;;19.80;73.70;;;;;;4959471;28;96801;-58
2022/04/25 12:06:08;;;;;;;45.55;31.77;;;19.80;73.60;;;;;;4953854;28;96134;-61
2022/04/25 12:17:08;;;;;;;42.08;30.73;;;19.80;74.00;;;;;;4937931;28;95882;-62
2022/04/25 12:20:02;;;;;;;41.38;29.90;;;19.80;73.90;;;;;;4950074;28;96073;-61
2022/04/25 12:22:33;;;;;;;44.28;30.75;;;19.80;73.40;;;;;;4949587;28;96028;-62
2022/04/25 12:25:20;;;;;;;43.13;30.10;;;19.70;74.00;;;;;;4951324;28;96927;-61
2022/04/25 12:28:06;;;;;;;41.10;29.73;;;19.60;74.10;;;;;;4951005;28;96867;-60
2022/04/25 12:30:57;;;;;;;37.88;29.50;;;19.60;74.20;;;;;;4945014;28;96948;-60
2022/04/25 12:33:34;;;;;;;;;;;19.50;74.20;;;;;;4953344;28;95986;-61
2022/04/25 12:36:21;;;;;;;48.45;28.65;;;19.50;74.10;;;;;;4960224;28;96469;-61
2022/04/25 12:38:53;;;;;;;37.42;28.67;;;19.50;74.20;;;;;;4957954;28;96262;-61
2022/04/25 12:41:36;;;;;;;36.38;26.52;;;19.50;74.20;;;;;;4949741;28;96547;-61
2022/04/25 12:44:13;;;;;;;40.55;27.33;;;19.40;74.20;;;;;;4948033;28;95945;-61
2022/04/25 12:46:48;;;;;;;34.70;26.05;;;19.50;73.70;;;;;;4935771;28;98634;-62
2022/04/25 12:49:32;;;;;;;36.97;25.88;;;19.50;74.40;;;;;;4932187;28;96317;-60
2022/04/25 12:52:09;;;;;;;33.80;25.38;;;19.40;74.20;;;;;;4934888;28;96184;-63
2022/04/25 12:54:43;;;;;;;;;;;19.40;74.20;;;;;;4937926;28;95866;-63
2022/04/25 12:57:20;;;;;;;35.03;24.83;;;19.40;74.30;;;;;;4950543;28;96810;-62
2022/04/25 12:59:54;;;;;;;33.88;24.90;;;19.30;74.40;;;;;;4935008;28;96052;-63
2022/04/25 13:02:39;;;;;;;32.00;22.50;;;19.30;74.40;;;;;;4930218;28;96132;-62
2022/04/25 13:05:15;;;;;;;31.20;22.38;;;19.30;74.40;;;;;;4934186;28;95796;-62
2022/04/25 13:07:48;;;;;;;28.90;22.75;;;19.30;74.40;;;;;;4933306;28;96057;-61
2022/04/25 13:10:20;;;;;;;33.80;23.67;;;19.30;74.50;;;;;;4936277;28;96522;-61
2022/04/25 13:12:56;;;;;;;29.38;22.77;;;19.20;74.50;;;;;;4934042;28;96439;-61
2022/04/25 13:15:31;;;;;;;33.72;23.52;;;19.20;74.50;;;;;;4927228;28;97144;-60
2022/04/25 13:18:02;;;;;;;30.00;22.05;;;19.20;74.60;;;;;;4938968;28;96321;-61
2022/04/25 13:20:35;;;;;;;;;;;19.20;75.10;;;;;;4941827;28;96076;-60
2022/04/25 13:23:07;;;;;;;27.50;19.48;;;19.30;75.10;;;;;;4943312;28;95946;-62
2022/04/25 13:25:38;;;;;;;25.63;19.70;;;19.40;75.10;;;;;;4942413;28;97956;-61
2022/04/25 13:28:09;;;;;;;27.55;19.65;;;19.50;75.00;;;;;;4939644;28;96282;-60
2022/04/25 13:30:39;;;;;;;;;;;19.70;74.80;;;;;;4932279;28;95867;-62
2022/04/25 13:33:10;;;;;;;24.58;18.27;;;19.80;74.70;;;;;;4942618;28;96820;-59
2022/04/25 13:35:44;;;;;;;23.20;18.48;;;19.90;74.60;;;;;;4957623;28;95913;-62
2022/04/25 13:38:15;;;;;;;22.45;16.48;;;20.00;74.40;;;;;;4940172;28;96632;-61
2022/04/25 13:40:47;;;;;;;21.73;17.47;;;20.10;74.30;;;;;;4936605;28;96097;-63
2022/04/25 13:43:18;;;;;;;21.95;16.00;;;20.20;74.20;;;;;;4934472;28;96607;-58
2022/04/25 13:45:53;;;;;;;19.95;15.95;;;20.30;74.10;;;;;;4943975;28;96104;-63
2022/04/25 13:48:26;;;;;;;21.20;15.85;;;20.40;73.80;;;;;;4933006;28;96604;-61
2022/04/25 13:50:59;;;;;;;22.05;15.73;;;20.40;73.60;;;;;;4939780;28;95920;-63
2022/04/25 13:53:30;;;;;;;20.50;15.85;;;20.50;73.60;;;;;;4940063;28;96164;-62